Time;durP1;ratioP1;P1;durP2;ratioP2;P2;SDS_P1;SDS_P2;PMS_P1;PMS_P2;Temp;Humidity;BMP_temperature;BMP_pressure;BME280_temperature;BME280_humidity;BME280_pressure;Samples;Min_cycle;Max_cycle;Signal;HPM_P1;HPM_P2
2022/10/08 00:00:52;;;;;;;12.57;6.50;;;11.10;99.90;;;;;;5025648;28;20392;-75
2022/10/08 00:03:19;;;;;;;19.08;7.05;;;11.20;99.90;;;;;;5008902;28;20049;-75
2022/10/08 00:06:16;;;;;;;14.73;6.28;;;11.20;99.90;;;;;;5010539;28;20029;-75
2022/10/08 00:08:46;;;;;;;12.63;6.40;;;11.20;99.90;;;;;;5013724;28;20141;-75
2022/10/08 00:11:15;;;;;;;11.70;6.57;;;11.20;99.90;;;;;;5009125;28;20430;-75
2022/10/08 00:13:42;;;;;;;15.82;6.60;;;11.30;99.90;;;;;;5008873;28;20030;-75
2022/10/08 00:16:14;;;;;;;12.15;6.40;;;11.30;99.90;;;;;;5010034;28;20022;-75
2022/10/08 00:18:41;;;;;;;12.38;6.63;;;11.30;99.90;;;;;;5008771;28;20120;-76
2022/10/08 00:21:13;;;;;;;8.98;6.80;;;11.30;99.90;;;;;;5010004;28;20030;-75
2022/10/08 00:23:39;;;;;;;14.77;9.02;;;11.30;99.90;;;;;;5008772;28;20025;-75
2022/10/08 00:26:06;;;;;;;11.88;7.18;;;11.30;99.90;;;;;;5009773;28;20026;-75
2022/10/08 00:28:35;;;;;;;13.40;8.98;;;11.30;99.90;;;;;;5025442;28;20037;-75
2022/10/08 00:31:10;;;;;;;13.65;8.45;;;11.30;99.90;;;;;;5008521;28;20112;-74
2022/10/08 00:33:36;;;;;;;13.45;8.18;;;11.30;99.90;;;;;;5009793;28;20042;-75
2022/10/08 00:36:04;;;;;;;12.32;8.15;;;11.40;99.90;;;;;;5008900;28;20554;-75
2022/10/08 00:38:30;;;;;;;15.02;8.13;;;11.40;99.90;;;;;;5024941;28;20038;-75
2022/10/08 00:40:56;;;;;;;10.75;7.55;;;11.40;99.90;;;;;;5009812;28;20112;-75
2022/10/08 00:43:54;;;;;;;;;;;11.40;99.90;;;;;;5010244;28;20112;-76
2022/10/08 00:46:43;;;;;;;11.82;7.60;;;11.30;99.90;;;;;;4975595;28;19909;-75
2022/10/08 00:49:11;;;;;;;17.02;9.60;;;11.30;99.90;;;;;;5024702;28;20060;-74
2022/10/08 00:51:54;;;;;;;13.55;8.80;;;11.20;99.90;;;;;;5009557;28;20069;-75
2022/10/08 00:54:21;;;;;;;21.05;9.13;;;11.20;99.90;;;;;;5003332;28;20096;-75
2022/10/08 00:56:51;;;;;;;17.63;8.50;;;11.20;99.90;;;;;;5009419;28;20498;-74
2022/10/08 00:59:17;;;;;;;13.95;8.10;;;11.20;99.90;;;;;;5009426;28;20409;-75
2022/10/08 01:01:43;;;;;;;;;;;11.20;99.90;;;;;;5009768;28;20140;-75
2022/10/08 01:04:10;;;;;;;17.73;10.25;;;11.10;99.90;;;;;;5009221;28;20366;-74
2022/10/08 01:06:41;;;;;;;19.45;11.52;;;11.10;99.90;;;;;;5009237;28;20042;-76
2022/10/08 01:09:22;;;;;;;17.55;11.20;;;11.00;99.90;;;;;;5008067;28;20029;-75
2022/10/08 01:12:20;;;;;;;16.58;9.25;;;11.00;99.90;;;;;;5009432;28;20121;-75
2022/10/08 01:14:59;;;;;;;16.52;9.60;;;11.10;99.90;;;;;;5007869;28;20029;-75
2022/10/08 01:17:43;;;;;;;27.83;12.25;;;11.00;99.90;;;;;;5007924;28;20406;-75
2022/10/08 01:20:30;;;;;;;22.25;13.13;;;11.00;99.90;;;;;;5007962;28;20205;-75
2022/10/08 01:23:14;;;;;;;;;;;10.90;99.90;;;;;;5008464;28;20033;-75
2022/10/08 01:26:04;;;;;;;24.20;11.57;;;10.80;99.90;;;;;;5009246;28;19955;-75
2022/10/08 01:28:50;;;;;;;19.45;11.25;;;10.80;99.90;;;;;;5009704;28;20436;-75
2022/10/08 01:31:40;;;;;;;15.65;10.85;;;10.80;99.90;;;;;;5009159;28;20030;-75
2022/10/08 01:34:12;;;;;;;21.45;12.05;;;10.70;99.90;;;;;;5009155;28;20034;-76
2022/10/08 01:36:47;;;;;;;21.15;13.82;;;10.70;99.90;;;;;;5008124;28;20402;-75
2022/10/08 01:39:20;;;;;;;22.90;13.00;;;10.70;99.90;;;;;;5007983;28;20030;-76
2022/10/08 01:41:51;;;;;;;21.23;12.35;;;10.70;99.90;;;;;;5009435;28;20029;-76
2022/10/08 01:44:32;;;;;;;23.73;13.48;;;10.70;99.90;;;;;;5008917;28;20060;-75
2022/10/08 01:47:02;;;;;;;15.07;11.18;;;10.60;99.90;;;;;;5009306;28;20029;-75
2022/10/08 01:49:33;;;;;;;15.35;10.48;;;10.60;99.90;;;;;;5009526;28;20089;-75
2022/10/08 01:52:09;;;;;;;20.05;13.15;;;10.60;99.90;;;;;;5008005;28;20038;-76
2022/10/08 01:54:39;;;;;;;17.27;11.93;;;10.60;99.90;;;;;;5008305;28;20033;-75
2022/10/08 01:57:08;;;;;;;22.23;13.45;;;10.60;99.90;;;;;;5008047;28;20513;-75
2022/10/08 01:59:53;;;;;;;23.35;14.85;;;10.60;99.90;;;;;;5009545;28;20072;-76
2022/10/08 02:02:21;;;;;;;24.27;15.00;;;10.60;99.90;;;;;;5025129;28;20096;-75
2022/10/08 02:04:48;;;;;;;27.48;14.98;;;10.60;99.90;;;;;;5016831;28;20133;-75
2022/10/08 02:07:20;;;;;;;19.40;14.35;;;10.60;99.90;;;;;;5009325;28;20053;-75
2022/10/08 02:09:53;;;;;;;21.80;14.98;;;10.60;99.90;;;;;;5007965;28;20030;-75
2022/10/08 02:12:21;;;;;;;22.30;15.48;;;10.60;99.90;;;;;;5008272;28;20042;-75
2022/10/08 02:14:51;;;;;;;19.85;14.02;;;10.50;99.90;;;;;;5008537;28;20018;-75
2022/10/08 02:17:46;;;;;;;19.40;14.55;;;10.50;99.90;;;;;;5007179;28;20044;-75
2022/10/08 02:20:34;;;;;;;19.95;13.55;;;10.50;99.90;;;;;;5007062;28;20022;-75
2022/10/08 02:23:24;;;;;;;27.48;15.80;;;10.50;99.90;;;;;;5007055;28;20034;-75
2022/10/08 02:26:00;;;;;;;21.88;13.07;;;10.40;99.90;;;;;;5008512;28;20030;-76
2022/10/08 02:28:39;;;;;;;26.90;14.25;;;10.40;99.90;;;;;;5007120;28;20018;-75
2022/10/08 02:31:23;;;;;;;20.52;13.80;;;10.40;99.90;;;;;;5006969;28;20069;-75
2022/10/08 02:34:05;;;;;;;24.70;15.05;;;10.40;99.90;;;;;;5006810;28;20065;-76
2022/10/08 02:36:36;;;;;;;23.70;14.55;;;10.40;99.90;;;;;;5006945;28;20037;-75
2022/10/08 02:39:04;;;;;;;19.48;14.55;;;10.40;99.90;;;;;;5007051;28;20403;-75
2022/10/08 02:41:45;;;;;;;17.15;13.48;;;10.30;99.90;;;;;;5007180;28;20495;-76
2022/10/08 02:44:23;;;;;;;17.35;12.20;;;10.30;99.90;;;;;;5006758;28;20117;-76
2022/10/08 02:46:52;;;;;;;20.75;13.75;;;10.30;99.90;;;;;;5006860;28;20026;-75
2022/10/08 02:49:24;;;;;;;16.52;13.45;;;10.30;99.90;;;;;;5006716;28;20410;-76
2022/10/08 02:51:52;;;;;;;22.35;16.15;;;10.30;99.90;;;;;;5008106;28;20038;-75
2022/10/08 02:54:19;;;;;;;25.48;15.38;;;10.30;99.90;;;;;;5007974;28;20084;-75
2022/10/08 02:56:54;;;;;;;27.23;15.82;;;10.30;99.90;;;;;;5008182;28;20029;-76
2022/10/08 02:59:20;;;;;;;26.02;16.65;;;10.20;99.90;;;;;;5009651;28;20037;-74
2022/10/08 03:02:03;;;;;;;30.17;17.13;;;10.20;99.90;;;;;;5010745;28;20080;-75
2022/10/08 03:04:46;;;;;;;26.55;18.35;;;10.10;99.90;;;;;;5012355;28;20510;-75
2022/10/08 03:07:14;;;;;;;24.15;16.58;;;10.20;99.90;;;;;;5011610;28;20076;-75
2022/10/08 03:09:43;;;;;;;22.45;15.75;;;10.20;99.90;;;;;;5010463;28;20030;-75
2022/10/08 03:12:09;;;;;;;19.90;14.15;;;10.10;99.90;;;;;;5010460;28;20565;-77
2022/10/08 03:14:38;;;;;;;;;;;10.20;99.90;;;;;;5027639;28;20026;-75
2022/10/08 03:17:05;;;;;;;18.98;13.05;;;10.20;99.90;;;;;;5030194;28;20293;-76
2022/10/08 03:19:33;;;;;;;19.33;13.43;;;10.20;99.90;;;;;;5031019;28;20490;-75
2022/10/08 03:21:59;;;;;;;15.45;11.80;;;10.20;99.90;;;;;;5031074;28;20033;-75
2022/10/08 03:24:24;;;;;;;;;;;10.20;99.90;;;;;;5013506;28;20383;-76
2022/10/08 03:26:52;;;;;;;20.52;12.05;;;10.10;99.90;;;;;;5011417;28;20378;-75
2022/10/08 03:29:17;;;;;;;18.85;13.20;;;10.20;99.90;;;;;;5009717;28;20021;-75
2022/10/08 03:31:43;;;;;;;;;;;10.10;99.90;;;;;;5012061;28;20073;-75
2022/10/08 03:34:08;;;;;;;17.45;12.77;;;10.10;99.90;;;;;;5009545;28;20389;-75
2022/10/08 03:36:34;;;;;;;;;;;10.10;99.90;;;;;;5009966;28;20076;-76
2022/10/08 03:38:59;;;;;;;25.55;14.57;;;10.20;99.90;;;;;;5010138;28;19960;-76
2022/10/08 03:41:25;;;;;;;;;;;10.20;99.90;;;;;;5010324;28;20332;-75
2022/10/08 03:43:50;;;;;;;19.08;12.75;;;10.20;99.90;;;;;;5011061;28;19937;-75
2022/10/08 03:46:16;;;;;;;;;;;10.40;99.90;;;;;;5011612;28;20490;-75
2022/10/08 03:48:42;;;;;;;14.32;10.27;;;10.40;99.90;;;;;;5009618;28;20286;-75
2022/10/08 03:51:13;;;;;;;16.90;11.70;;;10.40;99.90;;;;;;5010792;28;20049;-75
2022/10/08 03:53:40;;;;;;;19.27;11.73;;;10.40;99.90;;;;;;5011622;28;20034;-75
2022/10/08 03:56:11;;;;;;;17.08;11.52;;;10.50;99.90;;;;;;5009509;28;20026;-76
2022/10/08 03:58:37;;;;;;;16.92;11.35;;;10.50;99.90;;;;;;5009552;28;20033;-75
2022/10/08 04:01:04;;;;;;;;;;;10.50;99.90;;;;;;5010071;28;20080;-75
2022/10/08 04:03:31;;;;;;;15.98;9.73;;;10.50;99.90;;;;;;5010775;28;19917;-75
2022/10/08 04:05:57;;;;;;;17.70;12.20;;;10.50;99.90;;;;;;5022084;28;20033;-75
2022/10/08 04:08:24;;;;;;;13.63;10.25;;;10.50;99.90;;;;;;5028883;28;20037;-76
2022/10/08 04:10:49;;;;;;;20.15;10.45;;;10.40;99.90;;;;;;5030508;28;20032;-75
2022/10/08 04:13:15;;;;;;;;;;;10.40;99.90;;;;;;5029316;28;20041;-76
2022/10/08 04:15:42;;;;;;;14.60;10.68;;;10.50;99.90;;;;;;5028925;28;19908;-75
2022/10/08 04:18:11;;;;;;;17.70;10.98;;;10.50;99.90;;;;;;5030199;28;20025;-74
2022/10/08 04:20:38;;;;;;;18.77;11.45;;;10.50;99.90;;;;;;5030419;28;20025;-75
2022/10/08 04:23:05;;;;;;;20.40;12.25;;;10.40;99.90;;;;;;5029243;28;20029;-75
2022/10/08 04:25:30;;;;;;;17.15;11.57;;;10.50;99.90;;;;;;5030544;28;20072;-75
2022/10/08 04:27:56;;;;;;;;;;;10.50;99.90;;;;;;5030960;28;20033;-75
2022/10/08 04:30:23;;;;;;;15.07;9.88;;;10.50;99.90;;;;;;5029194;28;20392;-76
2022/10/08 04:32:48;;;;;;;12.40;8.55;;;10.60;99.90;;;;;;5029394;28;20037;-76
2022/10/08 04:35:14;;;;;;;;;;;10.50;99.90;;;;;;5030953;28;20448;-75
2022/10/08 04:37:39;;;;;;;19.55;7.95;;;10.60;99.90;;;;;;5030981;28;19916;-75
2022/10/08 04:40:05;;;;;;;;;;;10.70;99.90;;;;;;5025356;28;20030;-75
2022/10/08 04:42:31;;;;;;;17.88;8.23;;;10.70;99.90;;;;;;5008797;28;19940;-75
2022/10/08 04:44:56;;;;;;;;;;;10.70;99.90;;;;;;5008908;28;20038;-76
2022/10/08 04:47:22;;;;;;;11.77;8.02;;;10.70;99.90;;;;;;5009754;28;19910;-74
2022/10/08 04:49:47;;;;;;;;;;;10.70;99.90;;;;;;5009996;28;20034;-75
2022/10/08 04:52:15;;;;;;;10.43;7.75;;;10.70;99.90;;;;;;5009316;28;20680;-75
2022/10/08 04:54:41;;;;;;;11.85;7.88;;;10.70;99.90;;;;;;5015891;28;20409;-75
2022/10/08 04:57:06;;;;;;;;;;;10.60;99.90;;;;;;5012924;28;20045;-74
2022/10/08 04:59:32;;;;;;;18.30;10.15;;;10.70;99.90;;;;;;5009831;28;19996;-74
2022/10/08 05:01:58;;;;;;;;;;;10.60;99.90;;;;;;5009583;28;20042;-75
2022/10/08 05:04:23;;;;;;;16.27;8.40;;;10.60;99.90;;;;;;5009212;28;19913;-75
2022/10/08 05:06:49;;;;;;;;;;;10.60;99.90;;;;;;5010441;28;20063;-76
2022/10/08 05:09:14;;;;;;;12.98;6.15;;;10.60;99.90;;;;;;5017945;28;19932;-75
2022/10/08 05:11:41;;;;;;;;;;;10.60;99.90;;;;;;5007978;28;20045;-75
2022/10/08 05:14:06;;;;;;;17.02;6.95;;;10.60;99.90;;;;;;5009114;28;19915;-75
2022/10/08 05:16:32;;;;;;;;;;;10.70;99.90;;;;;;5009283;28;20116;-75
2022/10/08 05:18:58;;;;;;;11.32;5.75;;;10.70;99.90;;;;;;5008134;28;19913;-75
2022/10/08 05:21:25;;;;;;;;;;;10.80;99.90;;;;;;5009253;28;20478;-75
2022/10/08 05:23:56;;;;;;;15.23;5.00;;;10.90;99.90;;;;;;5007956;28;19905;-75
2022/10/08 05:26:27;;;;;;;6.75;5.10;;;11.00;99.90;;;;;;5009157;28;20134;-75
2022/10/08 05:28:55;;;;;;;11.80;5.13;;;11.10;99.90;;;;;;5008984;28;20026;-75
2022/10/08 05:31:21;;;;;;;9.48;4.93;;;11.20;99.90;;;;;;5024818;28;20037;-75
2022/10/08 05:33:47;;;;;;;8.45;5.43;;;11.20;99.90;;;;;;5025398;28;20061;-75
2022/10/08 05:36:17;;;;;;;;;;;11.40;99.90;;;;;;5028925;28;20025;-76
2022/10/08 05:38:43;;;;;;;16.15;7.47;;;11.50;99.90;;;;;;5027015;28;20011;-75
2022/10/08 05:41:12;;;;;;;;;;;11.70;99.90;;;;;;5028589;28;20128;-75
2022/10/08 05:43:38;;;;;;;19.27;8.32;;;11.80;99.90;;;;;;5029208;28;19909;-76
2022/10/08 05:46:03;;;;;;;;;;;11.80;99.90;;;;;;5027406;28;20077;-75
2022/10/08 05:48:29;;;;;;;12.98;8.32;;;11.90;99.90;;;;;;5026794;28;19990;-75
2022/10/08 05:50:54;;;;;;;;;;;12.00;99.90;;;;;;5026699;28;20036;-78
2022/10/08 05:53:20;;;;;;;15.45;11.35;;;12.10;99.90;;;;;;5017753;28;19956;-76
2022/10/08 05:55:45;;;;;;;;;;;12.20;99.90;;;;;;5028560;28;20493;-75
2022/10/08 05:58:11;;;;;;;16.75;9.32;;;12.30;99.90;;;;;;5017808;28;19913;-75
2022/10/08 06:00:36;;;;;;;;;;;12.50;99.90;;;;;;5011549;28;20614;-76
2022/10/08 06:03:02;;;;;;;18.52;9.27;;;12.60;99.90;;;;;;5013972;28;19929;-76
2022/10/08 06:05:28;;;;;;;;;;;12.80;99.90;;;;;;5008173;28;20073;-76
2022/10/08 06:07:56;;;;;;;17.42;10.90;;;12.90;99.90;;;;;;5017873;28;19912;-76
2022/10/08 06:10:23;;;;;;;16.77;10.02;;;13.20;99.90;;;;;;5008480;28;20411;-76
2022/10/08 06:12:49;;;;;;;12.48;7.80;;;13.50;99.90;;;;;;5012409;28;20034;-76
2022/10/08 06:15:14;;;;;;;;;;;13.80;99.90;;;;;;5008195;28;20407;-76
2022/10/08 06:17:49;;;;;;;14.50;8.80;;;14.10;99.90;;;;;;5006914;28;19916;-76
2022/10/08 06:20:15;;;;;;;10.82;7.10;;;14.40;99.90;;;;;;5011493;28;20034;-76
2022/10/08 06:22:40;;;;;;;;;;;14.80;99.90;;;;;;5015657;28;20044;-76
2022/10/08 06:25:06;;;;;;;12.45;6.85;;;15.30;99.90;;;;;;5006804;28;19910;-75
2022/10/08 06:27:32;;;;;;;16.88;8.57;;;15.80;99.90;;;;;;5007628;28;20034;-76
2022/10/08 06:29:57;;;;;;;10.40;6.25;;;16.50;99.90;;;;;;5008083;28;20037;-76
2022/10/08 06:32:23;;;;;;;10.68;5.97;;;17.10;99.90;;;;;;5006227;28;20046;-76
2022/10/08 06:34:48;;;;;;;9.07;6.47;;;17.90;99.90;;;;;;5010027;28;20270;-76
2022/10/08 06:37:14;;;;;;;9.95;6.30;;;18.50;99.90;;;;;;5011850;28;20038;-77
2022/10/08 06:39:40;;;;;;;15.02;7.10;;;19.00;99.90;;;;;;5011572;28;20553;-76
2022/10/08 06:42:05;;;;;;;14.27;6.35;;;19.50;99.90;;;;;;5011322;28;20033;-76
2022/10/08 06:44:31;;;;;;;12.38;6.07;;;20.00;99.90;;;;;;5011606;28;20117;-75
2022/10/08 06:46:56;;;;;;;9.20;6.32;;;20.30;99.90;;;;;;5015410;28;20077;-77
2022/10/08 06:49:25;;;;;;;14.05;7.03;;;20.70;99.90;;;;;;5019817;28;20026;-76
2022/10/08 06:51:51;;;;;;;12.35;5.70;;;20.90;99.90;;;;;;5009815;28;20753;-76
2022/10/08 06:54:16;;;;;;;15.85;5.70;;;21.00;99.90;;;;;;5024163;28;20032;-76
2022/10/08 06:56:42;;;;;;;14.18;5.70;;;21.10;99.90;;;;;;5015923;28;20041;-76
2022/10/08 06:59:08;;;;;;;10.45;5.32;;;21.30;99.90;;;;;;5009754;28;20088;-76
2022/10/08 07:01:34;;;;;;;10.88;5.07;;;21.70;99.90;;;;;;5011066;28;20147;-77
2022/10/08 07:04:01;;;;;;;10.77;7.25;;;21.90;99.90;;;;;;5011018;28;20404;-76
2022/10/08 07:06:27;;;;;;;11.48;5.38;;;22.00;99.90;;;;;;5011317;28;20030;-76
2022/10/08 07:08:54;;;;;;;11.88;4.78;;;22.30;99.50;;;;;;5009638;28;20025;-76
2022/10/08 07:11:20;;;;;;;9.55;3.88;;;22.30;98.40;;;;;;5011037;28;20041;-76
2022/10/08 07:13:46;;;;;;;10.77;4.40;;;22.10;98.80;;;;;;5009968;28;20033;-76
2022/10/08 07:16:15;;;;;;;13.63;5.22;;;21.60;99.00;;;;;;5010674;28;20380;-76
2022/10/08 07:18:41;;;;;;;8.52;3.97;;;21.40;99.70;;;;;;5009433;28;20026;-76
2022/10/08 07:21:09;;;;;;;12.43;4.45;;;21.10;99.90;;;;;;5009631;28;20036;-77
2022/10/08 07:23:35;;;;;;;11.77;3.72;;;21.00;99.90;;;;;;5011119;28;20487;-77
2022/10/08 07:26:06;;;;;;;14.30;4.47;;;20.90;99.90;;;;;;5010959;28;20041;-76
2022/10/08 07:28:37;;;;;;;15.43;4.47;;;20.70;99.90;;;;;;5009441;28;20545;-76
2022/10/08 07:31:28;;;;;;;8.48;3.60;;;20.70;99.90;;;;;;5009113;28;20129;-77
2022/10/08 07:33:57;;;;;;;17.42;4.18;;;20.50;99.90;;;;;;5010904;28;20037;-76
2022/10/08 07:36:24;;;;;;;9.10;3.97;;;20.40;99.90;;;;;;5010600;28;20561;-76
2022/10/08 07:38:58;;;;;;;12.55;4.25;;;20.30;99.90;;;;;;5009581;28;20030;-77
2022/10/08 07:41:24;;;;;;;13.60;4.78;;;20.20;99.90;;;;;;5010398;28;20075;-76
2022/10/08 07:43:59;;;;;;;6.18;3.40;;;20.10;99.90;;;;;;5009427;28;20037;-76
2022/10/08 07:46:25;;;;;;;13.30;3.70;;;20.00;99.90;;;;;;5010282;28;20025;-76
2022/10/08 07:48:53;;;;;;;6.13;3.25;;;20.00;99.90;;;;;;5009344;28;20037;-75
2022/10/08 07:51:19;;;;;;;7.18;3.28;;;19.90;99.90;;;;;;5008945;28;20026;-76
2022/10/08 07:53:46;;;;;;;11.63;3.38;;;19.90;99.90;;;;;;5009022;28;20511;-77
2022/10/08 07:56:13;;;;;;;9.32;3.10;;;19.90;99.90;;;;;;5010413;28;20483;-76
2022/10/08 07:58:39;;;;;;;9.13;4.20;;;20.00;99.90;;;;;;5009028;28;20040;-76
2022/10/08 08:01:09;;;;;;;14.93;4.50;;;20.10;98.80;;;;;;5010225;28;20026;-76
2022/10/08 08:03:35;;;;;;;7.20;2.80;;;20.10;99.10;;;;;;5010247;28;20044;-77
2022/10/08 08:06:14;;;;;;;6.45;2.90;;;20.30;99.50;;;;;;5009926;28;20402;-77
2022/10/08 08:08:42;;;;;;;10.80;2.63;;;20.80;99.10;;;;;;5009994;28;20116;-77
2022/10/08 08:11:09;;;;;;;8.23;2.50;;;21.50;98.00;;;;;;5008606;28;20017;-76
2022/10/08 08:13:37;;;;;;;18.40;4.22;;;22.30;96.60;;;;;;5008503;28;20044;-77
2022/10/08 08:16:09;;;;;;;11.43;3.17;;;23.20;92.40;;;;;;5008324;28;20033;-76
2022/10/08 08:18:37;;;;;;;8.55;2.67;;;23.30;90.80;;;;;;5008616;28;20061;-76
2022/10/08 08:21:09;;;;;;;10.05;3.70;;;23.50;91.30;;;;;;5009998;28;20097;-76
2022/10/08 08:23:37;;;;;;;6.25;2.78;;;23.90;89.60;;;;;;5009518;28;20065;-76
2022/10/08 08:26:07;;;;;;;10.00;3.10;;;24.20;88.90;;;;;;5008434;28;20572;-76
2022/10/08 08:28:34;;;;;;;8.43;2.90;;;24.60;87.10;;;;;;5009667;28;20564;-77
2022/10/08 08:31:33;;;;;;;6.22;2.83;;;24.70;82.80;;;;;;5009787;28;20037;-77
2022/10/08 08:34:05;;;;;;;6.40;2.42;;;25.10;80.70;;;;;;5008537;28;20038;-78
2022/10/08 08:36:33;;;;;;;7.20;2.80;;;25.60;78.20;;;;;;5008104;28;20088;-77
2022/10/08 08:38:59;;;;;;;11.88;2.85;;;26.00;76.30;;;;;;5021462;28;20041;-77
2022/10/08 08:41:43;;;;;;;10.73;2.65;;;26.30;75.20;;;;;;5027701;28;20029;-78
2022/10/08 08:44:15;;;;;;;8.05;3.13;;;26.80;70.00;;;;;;5027556;28;20509;-77
2022/10/08 08:47:04;;;;;;;9.35;2.70;;;26.50;69.50;;;;;;5029113;28;20053;-78
2022/10/08 08:49:36;;;;;;;7.25;3.00;;;26.30;71.00;;;;;;5027803;28;20060;-77
2022/10/08 08:52:03;;;;;;;11.70;2.97;;;26.30;68.90;;;;;;5028506;28;20195;-78
2022/10/08 08:54:29;;;;;;;12.30;2.92;;;26.20;67.50;;;;;;5028899;28;20041;-77
2022/10/08 08:56:59;;;;;;;7.97;2.80;;;26.10;68.70;;;;;;5027171;28;20036;-77
2022/10/08 08:59:30;;;;;;;7.03;3.25;;;26.30;69.20;;;;;;5027510;28;20076;-78
2022/10/08 09:02:00;;;;;;;9.07;2.85;;;26.40;67.00;;;;;;5028317;28;20134;-77
2022/10/08 09:04:33;;;;;;;13.80;3.50;;;26.50;67.40;;;;;;5027257;28;20418;-76
2022/10/08 09:07:02;;;;;;;10.88;3.35;;;26.80;65.60;;;;;;5027453;28;20525;-76
2022/10/08 09:09:31;;;;;;;8.10;3.00;;;27.00;66.00;;;;;;5028593;28;20018;-76
2022/10/08 09:11:57;;;;;;;8.57;3.15;;;27.00;64.50;;;;;;5027481;28;20045;-76
2022/10/08 09:14:34;;;;;;;4.80;2.55;;;27.10;64.00;;;;;;5026827;28;20030;-77
2022/10/08 09:17:27;;;;;;;10.55;3.05;;;27.20;63.00;;;;;;5028803;28;20080;-76
2022/10/08 09:19:53;;;;;;;19.75;3.05;;;27.30;60.80;;;;;;5027245;28;20525;-77
2022/10/08 09:22:27;;;;;;;4.22;2.47;;;27.40;61.30;;;;;;5028233;28;20029;-76
2022/10/08 09:25:05;;;;;;;6.72;2.72;;;27.40;60.30;;;;;;5027072;28;20025;-75
2022/10/08 09:27:43;;;;;;;11.68;3.17;;;27.30;60.30;;;;;;5028142;28;20048;-77
2022/10/08 09:30:29;;;;;;;5.07;2.47;;;27.10;61.70;;;;;;5028330;28;20075;-76
2022/10/08 09:33:01;;;;;;;5.50;3.15;;;27.20;60.70;;;;;;5026713;28;20480;-77
2022/10/08 09:35:29;;;;;;;5.28;2.55;;;27.20;61.70;;;;;;5028243;28;20490;-76
2022/10/08 09:37:55;;;;;;;6.13;3.15;;;27.50;61.50;;;;;;5027171;28;20544;-77
2022/10/08 09:40:24;;;;;;;8.52;3.20;;;27.70;60.90;;;;;;5028227;28;20482;-77
2022/10/08 09:43:10;;;;;;;6.60;3.00;;;27.70;59.80;;;;;;5028429;28;20030;-77
2022/10/08 09:45:43;;;;;;;9.93;3.63;;;27.70;58.80;;;;;;5028224;28;20087;-77
2022/10/08 09:48:27;;;;;;;7.65;3.10;;;27.40;58.50;;;;;;5028058;28;20029;-76
2022/10/08 09:50:57;;;;;;;4.47;3.03;;;27.20;60.00;;;;;;5026690;28;20035;-77
2022/10/08 09:53:27;;;;;;;9.82;4.25;;;27.00;60.20;;;;;;5013080;28;20121;-76
2022/10/08 09:55:57;;;;;;;7.00;3.17;;;27.00;60.90;;;;;;5008195;28;20030;-76
2022/10/08 09:58:23;;;;;;;6.45;3.10;;;27.20;59.90;;;;;;5007906;28;20034;-77
2022/10/08 10:01:01;;;;;;;8.68;3.63;;;27.10;60.10;;;;;;5008261;28;20033;-76
2022/10/08 10:03:27;;;;;;;5.63;3.20;;;27.10;60.60;;;;;;5008057;28;20669;-75
2022/10/08 10:05:55;;;;;;;5.22;3.83;;;27.00;60.90;;;;;;5006865;28;20042;-76
2022/10/08 10:08:39;;;;;;;7.18;3.28;;;27.00;60.30;;;;;;5009867;28;20032;-76
2022/10/08 10:11:10;;;;;;;6.25;3.78;;;27.00;61.20;;;;;;5012462;28;20593;-76
2022/10/08 10:13:39;;;;;;;5.68;3.53;;;27.00;60.90;;;;;;5012132;28;20124;-75
2022/10/08 10:16:27;;;;;;;7.55;3.22;;;26.90;61.00;;;;;;5010653;28;20498;-76
2022/10/08 10:18:57;;;;;;;4.55;3.10;;;26.70;60.80;;;;;;5010908;28;20062;-76
2022/10/08 10:21:29;;;;;;;9.43;3.72;;;26.20;61.90;;;;;;5011182;28;20072;-76
2022/10/08 10:24:21;;;;;;;10.35;3.65;;;25.50;61.80;;;;;;5012109;28;20044;-76
2022/10/08 10:26:50;;;;;;;17.85;4.55;;;24.70;64.80;;;;;;5010728;28;20121;-76
2022/10/08 10:29:36;;;;;;;8.20;3.17;;;24.00;67.10;;;;;;5010487;28;20069;-76
2022/10/08 10:32:13;;;;;;;7.47;3.17;;;23.50;69.20;;;;;;5011822;28;20442;-76
2022/10/08 10:34:41;;;;;;;15.23;3.70;;;23.20;70.70;;;;;;5010128;28;20494;-76
2022/10/08 10:37:12;;;;;;;14.80;3.50;;;22.90;71.00;;;;;;5011614;28;20038;-76
2022/10/08 10:39:51;;;;;;;5.90;3.10;;;22.70;73.80;;;;;;5010463;28;20116;-76
2022/10/08 10:42:28;;;;;;;8.68;3.65;;;22.50;74.50;;;;;;5010161;28;20632;-76
2022/10/08 10:45:03;;;;;;;7.70;4.00;;;22.40;75.10;;;;;;5010654;28;20053;-76
2022/10/08 10:47:30;;;;;;;17.17;4.25;;;22.20;75.70;;;;;;5011876;28;20018;-76
2022/10/08 10:50:01;;;;;;;8.77;4.28;;;22.10;76.30;;;;;;5010421;28;20038;-76
2022/10/08 10:52:51;;;;;;;4.97;3.20;;;22.10;77.20;;;;;;5011160;28;20414;-76
2022/10/08 10:55:20;;;;;;;8.52;3.22;;;21.90;78.00;;;;;;5010660;28;20411;-75
2022/10/08 10:58:08;;;;;;;12.38;4.15;;;21.70;77.40;;;;;;5010752;28;20037;-76
2022/10/08 11:00:52;;;;;;;10.38;4.20;;;21.50;77.50;;;;;;5010365;28;20073;-76
2022/10/08 11:03:57;;;;;;;4.65;2.75;;;21.20;79.80;;;;;;5010084;28;20073;-76
2022/10/08 11:06:53;;;;;;;7.90;2.45;;;21.20;81.10;;;;;;5009943;28;20026;-74
2022/10/08 11:09:31;;;;;;;7.47;2.88;;;21.30;79.20;;;;;;5009837;28;20145;-75
2022/10/08 11:12:16;;;;;;;8.05;3.08;;;21.40;78.60;;;;;;5011079;28;20495;-76
2022/10/08 11:14:53;;;;;;;9.40;3.08;;;21.40;79.80;;;;;;5010516;28;20049;-76
2022/10/08 11:17:37;;;;;;;5.35;2.85;;;21.40;81.80;;;;;;5011204;28;20026;-76
2022/10/08 11:20:25;;;;;;;7.75;3.47;;;21.40;82.30;;;;;;5010586;28;20040;-76
2022/10/08 11:23:17;;;;;;;10.65;3.45;;;21.30;80.80;;;;;;5019405;28;20026;-76
2022/10/08 11:26:18;;;;;;;9.45;2.83;;;21.00;81.80;;;;;;4986830;28;20034;-76
2022/10/08 11:28:47;;;;;;;5.45;3.35;;;21.00;83.00;;;;;;5001364;28;20045;-76
2022/10/08 11:31:20;;;;;;;13.02;3.92;;;20.90;83.10;;;;;;5010416;28;20095;-74
2022/10/08 11:33:47;;;;;;;4.78;2.72;;;20.80;83.80;;;;;;5026893;28;20503;-76
2022/10/08 11:36:23;;;;;;;9.68;3.55;;;20.70;84.70;;;;;;5022859;28;20545;-76
2022/10/08 11:39:05;;;;;;;7.20;2.70;;;20.80;85.60;;;;;;5028255;28;20033;-76
2022/10/08 11:41:44;;;;;;;15.27;4.03;;;21.00;85.40;;;;;;5010472;28;20038;-75
2022/10/08 11:44:11;;;;;;;4.72;2.30;;;21.00;84.70;;;;;;5012658;28;20415;-75
2022/10/08 11:46:36;;;;;;;6.28;2.15;;;21.00;84.70;;;;;;5019178;28;20597;-75
2022/10/08 11:49:14;;;;;;;9.30;2.55;;;21.00;85.40;;;;;;5010642;28;20026;-75
2022/10/08 11:51:51;;;;;;;5.45;2.60;;;21.10;85.40;;;;;;5010031;28;20038;-76
2022/10/08 11:54:33;;;;;;;6.57;1.92;;;21.20;83.90;;;;;;5009443;28;20072;-75
2022/10/08 11:57:21;;;;;;;6.90;2.25;;;21.20;83.70;;;;;;5008946;28;20386;-75
2022/10/08 12:00:25;;;;;;;8.80;2.60;;;21.40;81.10;;;;;;5010902;28;20038;-75
2022/10/08 12:02:53;;;;;;;8.60;2.40;;;21.40;82.00;;;;;;4991340;28;20054;-76
2022/10/08 12:05:22;;;;;;;3.17;1.80;;;21.40;82.10;;;;;;5008983;28;20037;-76
2022/10/08 12:07:56;;;;;;;3.45;2.00;;;21.50;82.00;;;;;;5020433;28;20037;-76
2022/10/08 12:10:42;;;;;;;8.23;2.88;;;21.50;82.20;;;;;;5017884;28;20033;-76
2022/10/08 12:13:10;;;;;;;8.20;2.27;;;21.50;82.60;;;;;;5029347;28;20045;-76
2022/10/08 12:15:37;;;;;;;5.07;2.40;;;21.50;82.30;;;;;;5027377;28;20272;-76
2022/10/08 12:18:09;;;;;;;8.20;3.30;;;21.60;82.80;;;;;;5019261;28;20538;-75
2022/10/08 12:20:36;;;;;;;6.95;2.78;;;21.60;82.40;;;;;;5008852;28;20486;-76
2022/10/08 12:23:20;;;;;;;6.38;2.95;;;21.50;81.50;;;;;;5009758;28;20021;-75
2022/10/08 12:25:47;;;;;;;7.05;2.88;;;21.40;80.40;;;;;;5024499;28;20132;-75
2022/10/08 12:28:19;;;;;;;4.25;2.67;;;21.10;81.80;;;;;;5022380;28;20091;-74
2022/10/08 12:30:55;;;;;;;8.02;2.72;;;21.00;82.00;;;;;;5016416;28;20034;-75
2022/10/08 12:33:22;;;;;;;5.25;2.97;;;21.00;83.40;;;;;;5009418;28;20080;-76
2022/10/08 12:36:14;;;;;;;7.28;2.47;;;21.10;83.40;;;;;;5008182;28;20508;-76
2022/10/08 12:39:04;;;;;;;8.32;2.63;;;21.20;83.80;;;;;;5009947;28;20549;-75
2022/10/08 12:41:52;;;;;;;6.63;2.33;;;21.30;83.00;;;;;;5016204;28;20041;-75
2022/10/08 12:44:27;;;;;;;5.47;3.05;;;21.50;83.80;;;;;;5026900;28;20063;-76
2022/10/08 12:47:11;;;;;;;5.05;2.67;;;21.60;82.90;;;;;;5029732;28;20144;-76
2022/10/08 12:49:55;;;;;;;5.30;2.38;;;21.70;81.60;;;;;;5027848;28;20052;-76
2022/10/08 12:52:22;;;;;;;10.65;2.85;;;21.70;81.90;;;;;;5018468;28;20168;-76
2022/10/08 12:54:53;;;;;;;11.13;2.90;;;21.80;81.90;;;;;;5013602;28;20036;-75
2022/10/08 12:57:25;;;;;;;4.85;2.45;;;21.90;82.20;;;;;;5008266;28;20103;-75
2022/10/08 12:59:51;;;;;;;7.43;3.17;;;22.00;80.80;;;;;;5009536;28;20136;-76
2022/10/08 13:02:37;;;;;;;9.35;3.38;;;22.00;79.50;;;;;;5007480;28;20518;-74
2022/10/08 13:05:20;;;;;;;6.85;2.70;;;22.00;79.80;;;;;;5007871;28;20022;-75
2022/10/08 13:07:46;;;;;;;7.25;3.72;;;21.80;78.10;;;;;;5007726;28;20030;-76
2022/10/08 13:10:36;;;;;;;7.10;3.40;;;21.70;80.20;;;;;;5021277;28;20095;-75
2022/10/08 13:13:04;;;;;;;10.43;2.75;;;21.60;80.30;;;;;;5014842;28;20108;-75